Time;durP1;ratioP1;P1;durP2;ratioP2;P2;SDS_P1;SDS_P2;PMS_P1;PMS_P2;Temp;Humidity;BMP_temperature;BMP_pressure;BME280_temperature;BME280_humidity;BME280_pressure;Samples;Min_cycle;Max_cycle;Signal;HPM_P1;HPM_P2
2022/08/18 00:02:10;;;;;;;13.13;5.03;;;18.60;99.90;;;;;;5004297;28;20489;-76
2022/08/18 00:04:37;;;;;;;13.02;4.70;;;18.60;99.90;;;;;;4991874;28;20056;-75
2022/08/18 00:07:07;;;;;;;13.73;4.93;;;18.50;99.90;;;;;;5008871;28;20108;-75
2022/08/18 00:09:36;;;;;;;15.77;5.82;;;18.60;99.90;;;;;;5037346;28;20038;-76
2022/08/18 00:12:08;;;;;;;12.93;5.28;;;18.60;99.90;;;;;;5005556;28;20041;-76
2022/08/18 00:14:33;;;;;;;14.40;5.55;;;18.60;99.90;;;;;;5007070;28;20072;-76
2022/08/18 00:17:00;;;;;;;13.25;5.72;;;18.50;99.90;;;;;;5007590;28;20408;-75
2022/08/18 00:19:26;;;;;;;13.45;5.45;;;18.50;99.90;;;;;;5006302;28;20145;-76
2022/08/18 00:21:52;;;;;;;12.30;5.57;;;18.50;99.90;;;;;;5008118;28;20044;-75
2022/08/18 00:24:17;;;;;;;15.85;6.30;;;18.50;99.90;;;;;;4992206;28;20026;-76
2022/08/18 00:26:43;;;;;;;16.92;6.18;;;18.50;99.90;;;;;;4990795;28;20433;-76
2022/08/18 00:29:09;;;;;;;17.77;6.07;;;18.50;99.90;;;;;;4990606;28;20052;-76
2022/08/18 00:31:35;;;;;;;18.38;6.97;;;18.50;99.90;;;;;;5010506;28;20049;-76
2022/08/18 00:34:01;;;;;;;14.43;6.47;;;18.50;99.90;;;;;;4983755;28;20072;-76
2022/08/18 00:36:27;;;;;;;19.17;6.32;;;18.50;99.90;;;;;;5016875;28;20056;-76
2022/08/18 00:38:56;;;;;;;15.05;6.35;;;18.50;99.90;;;;;;5017865;28;20523;-76
2022/08/18 00:41:25;;;;;;;17.00;6.65;;;18.50;99.90;;;;;;5019843;28;20458;-75
2022/08/18 00:43:51;;;;;;;18.83;6.30;;;18.50;99.90;;;;;;5018155;28;20044;-76
2022/08/18 00:46:23;;;;;;;14.60;5.80;;;18.50;99.90;;;;;;5015953;28;20108;-76
2022/08/18 00:48:52;;;;;;;18.63;5.88;;;18.50;99.90;;;;;;5016679;28;20041;-74
2022/08/18 00:51:32;;;;;;;14.90;6.05;;;18.40;99.90;;;;;;5014227;28;20036;-76
2022/08/18 00:54:01;;;;;;;16.83;5.45;;;18.40;99.90;;;;;;5016885;28;20091;-76
2022/08/18 00:56:38;;;;;;;19.83;5.70;;;18.40;99.90;;;;;;5051208;28;20566;-75
2022/08/18 00:59:25;;;;;;;15.23;5.72;;;18.40;99.90;;;;;;5004637;28;20073;-74
2022/08/18 01:02:01;;;;;;;13.55;5.10;;;18.40;99.90;;;;;;5010082;28;20404;-75
2022/08/18 01:04:38;;;;;;;15.60;4.97;;;18.30;99.90;;;;;;5018144;28;20040;-75
2022/08/18 01:07:14;;;;;;;13.52;4.80;;;18.30;99.90;;;;;;5017784;28;20041;-75
2022/08/18 01:09:40;;;;;;;17.23;5.78;;;18.30;99.90;;;;;;5020850;28;20593;-77
2022/08/18 01:12:07;;;;;;;13.77;4.68;;;18.30;99.90;;;;;;4994473;28;20180;-75
2022/08/18 01:14:35;;;;;;;14.38;4.93;;;18.30;99.90;;;;;;5016571;28;20076;-77
2022/08/18 01:22:48;;;;;;;18.65;5.28;;;18.30;99.90;;;;;;5008805;28;20041;-75
2022/08/18 01:28:02;;;;;;;16.00;5.43;;;18.30;99.90;;;;;;5014355;28;20124;-76
2022/08/18 01:30:30;;;;;;;12.15;4.90;;;18.30;99.90;;;;;;5011737;28;20042;-76
2022/08/18 01:32:57;;;;;;;14.90;5.10;;;18.30;99.90;;;;;;4980766;28;20126;-75
2022/08/18 01:35:25;;;;;;;14.13;5.15;;;18.30;99.90;;;;;;5015640;28;20042;-76
2022/08/18 01:37:53;;;;;;;12.65;5.13;;;16.80;99.90;;;;;;5020722;28;20121;-76
2022/08/18 01:40:21;;;;;;;18.83;5.68;;;18.30;99.90;;;;;;5032196;28;20082;-75
2022/08/18 01:42:46;;;;;;;20.38;5.47;;;18.40;99.90;;;;;;5014814;28;20184;-75
2022/08/18 01:45:15;;;;;;;16.17;6.07;;;18.40;99.90;;;;;;4995729;28;20567;-75
2022/08/18 01:47:42;;;;;;;15.23;5.22;;;;;;;;;;5016882;28;20045;-75
2022/08/18 01:50:11;;;;;;;14.52;5.30;;;18.40;99.90;;;;;;5014745;28;20037;-76
2022/08/18 01:52:39;;;;;;;17.73;5.53;;;18.40;99.90;;;;;;4999380;28;20088;-75
2022/08/18 01:55:06;;;;;;;16.67;6.18;;;18.50;99.90;;;;;;5018155;28;20042;-76
2022/08/18 01:57:34;;;;;;;17.25;6.00;;;18.50;99.90;;;;;;5011159;28;20131;-76
2022/08/18 02:00:00;;;;;;;15.60;5.68;;;18.50;99.90;;;;;;5018081;28;20041;-76
2022/08/18 02:02:32;;;;;;;15.27;5.55;;;18.50;99.90;;;;;;5014021;28;20038;-74
2022/08/18 02:05:04;;;;;;;20.97;6.03;;;18.50;99.90;;;;;;4994774;28;20056;-75
2022/08/18 02:07:29;;;;;;;17.83;5.68;;;18.50;99.90;;;;;;5015051;28;20042;-76
2022/08/18 02:09:55;;;;;;;14.90;5.78;;;18.50;99.90;;;;;;5015821;28;20050;-75
2022/08/18 02:12:21;;;;;;;15.95;5.50;;;18.40;99.90;;;;;;5013422;28;20038;-76
2022/08/18 02:14:47;;;;;;;17.65;5.28;;;18.40;99.90;;;;;;5015606;28;20120;-76
2022/08/18 02:17:13;;;;;;;17.80;5.35;;;18.50;99.90;;;;;;4983771;28;20041;-76
2022/08/18 02:19:44;;;;;;;18.45;5.80;;;18.50;99.90;;;;;;5014710;28;20112;-75
2022/08/18 02:22:13;;;;;;;14.98;5.63;;;18.50;99.90;;;;;;5049069;28;20069;-75
2022/08/18 02:24:40;;;;;;;17.40;5.70;;;18.50;99.90;;;;;;5011113;28;20135;-75
2022/08/18 02:27:07;;;;;;;16.85;5.63;;;18.50;99.90;;;;;;5012632;28;20479;-75
2022/08/18 02:29:34;;;;;;;17.70;5.63;;;18.50;99.90;;;;;;5028472;28;20042;-75
2022/08/18 02:32:03;;;;;;;17.30;5.57;;;18.50;99.90;;;;;;5019251;28;20048;-75
2022/08/18 02:34:28;;;;;;;18.15;6.30;;;18.50;99.90;;;;;;5014761;28;20038;-75
2022/08/18 02:36:54;;;;;;;17.83;6.15;;;18.50;99.90;;;;;;5011847;28;20049;-75
2022/08/18 02:39:20;;;;;;;16.70;5.80;;;18.50;99.90;;;;;;5017265;28;20073;-75
2022/08/18 02:41:46;;;;;;;19.70;5.95;;;18.50;99.90;;;;;;5013571;28;20041;-77
2022/08/18 02:44:12;;;;;;;20.05;5.72;;;18.50;99.90;;;;;;5013964;28;20185;-76
2022/08/18 02:46:38;;;;;;;16.05;6.45;;;18.50;99.90;;;;;;5046355;28;20052;-75
2022/08/18 02:49:06;;;;;;;18.33;5.85;;;18.50;99.90;;;;;;5014739;28;20044;-75
2022/08/18 02:51:32;;;;;;;15.25;5.60;;;18.50;99.90;;;;;;5050948;28;20034;-75
2022/08/18 02:53:58;;;;;;;17.45;6.00;;;18.50;99.90;;;;;;5016746;28;21186;-75
2022/08/18 02:56:26;;;;;;;20.45;6.45;;;18.50;99.90;;;;;;5001197;28;20067;-76
2022/08/18 02:58:53;;;;;;;16.25;5.80;;;18.50;99.90;;;;;;5011909;28;20042;-75
2022/08/18 03:01:24;;;;;;;13.65;5.85;;;18.50;99.90;;;;;;5020293;28;20129;-75
2022/08/18 03:03:51;;;;;;;17.33;5.95;;;18.50;99.90;;;;;;5005964;28;20490;-75
2022/08/18 03:06:18;;;;;;;21.98;5.95;;;18.50;99.90;;;;;;5007768;28;20042;-75
2022/08/18 03:08:47;;;;;;;20.08;5.82;;;18.50;99.90;;;;;;5012476;28;20265;-75
2022/08/18 03:11:19;;;;;;;17.02;5.88;;;18.50;99.90;;;;;;5014547;28;20107;-76
2022/08/18 03:13:45;;;;;;;20.10;5.53;;;18.50;99.90;;;;;;4997378;28;20163;-75
2022/08/18 03:16:12;;;;;;;18.73;6.00;;;18.50;99.90;;;;;;5010643;28;20297;-75
2022/08/18 03:18:40;;;;;;;17.08;5.75;;;18.50;99.90;;;;;;5015581;28;20163;-75
2022/08/18 03:21:12;;;;;;;16.52;5.68;;;18.60;99.90;;;;;;4998640;28;20103;-76
2022/08/18 03:23:41;;;;;;;24.02;6.30;;;18.60;99.90;;;;;;5020009;28;20026;-75
2022/08/18 03:26:10;;;;;;;14.50;5.45;;;18.60;99.90;;;;;;5016480;28;20381;-75
2022/08/18 03:28:41;;;;;;;14.02;4.93;;;18.60;99.90;;;;;;5017372;28;20038;-75
2022/08/18 03:31:08;;;;;;;14.60;5.45;;;18.60;99.90;;;;;;5018037;28;20588;-75
2022/08/18 03:33:34;;;;;;;20.10;5.38;;;18.60;99.90;;;;;;5016945;28;20042;-75
2022/08/18 03:36:09;;;;;;;16.88;5.53;;;18.60;99.90;;;;;;5019360;28;20053;-75
2022/08/18 03:38:35;;;;;;;14.75;5.00;;;18.60;99.90;;;;;;5014330;28;20084;-75
2022/08/18 03:41:01;;;;;;;18.42;5.72;;;18.60;99.90;;;;;;5022539;28;20064;-76
2022/08/18 03:43:27;;;;;;;19.67;5.32;;;18.60;99.90;;;;;;5018086;28;20086;-76
2022/08/18 03:45:53;;;;;;;18.02;5.40;;;18.60;99.90;;;;;;5005459;28;20048;-75
2022/08/18 03:48:24;;;;;;;15.63;5.00;;;18.60;99.90;;;;;;4978476;28;20202;-75
2022/08/18 03:50:49;;;;;;;16.58;5.10;;;18.60;99.90;;;;;;5013481;28;20053;-75
2022/08/18 03:53:15;;;;;;;20.92;5.40;;;19.80;99.90;;;;;;5019512;28;20069;-76
2022/08/18 03:55:41;;;;;;;15.77;5.10;;;18.60;99.90;;;;;;5000265;28;20042;-75
2022/08/18 03:58:07;;;;;;;15.82;5.38;;;18.60;99.90;;;;;;5015051;28;20288;-75
2022/08/18 04:00:37;;;;;;;17.13;5.53;;;18.60;99.90;;;;;;5018033;28;20034;-75
2022/08/18 04:03:03;;;;;;;21.33;6.18;;;18.60;99.90;;;;;;5016414;28;20065;-75
2022/08/18 04:05:33;;;;;;;18.08;4.95;;;18.60;99.90;;;;;;5001445;28;20042;-76
2022/08/18 04:07:59;;;;;;;15.95;4.75;;;18.60;99.90;;;;;;5015337;28;20041;-76
2022/08/18 04:10:25;;;;;;;16.02;5.47;;;18.60;99.90;;;;;;4998721;28;20080;-76
2022/08/18 04:12:51;;;;;;;13.50;5.30;;;18.60;99.90;;;;;;5018317;28;20310;-76
2022/08/18 04:15:20;;;;;;;17.20;5.10;;;18.60;99.90;;;;;;5019793;28;20045;-76
2022/08/18 04:17:46;;;;;;;17.77;5.78;;;18.70;99.90;;;;;;5016600;28;20074;-76
2022/08/18 04:20:12;;;;;;;17.67;5.35;;;18.70;99.90;;;;;;5016355;28;20147;-75
2022/08/18 04:22:39;;;;;;;14.40;5.07;;;18.70;99.90;;;;;;5002123;28;20395;-75
2022/08/18 04:25:08;;;;;;;15.15;5.28;;;18.70;99.90;;;;;;4999041;28;20049;-75
2022/08/18 04:27:38;;;;;;;13.27;5.38;;;18.70;99.90;;;;;;4983776;28;20042;-75
2022/08/18 04:30:05;;;;;;;13.57;5.70;;;18.70;99.90;;;;;;5009784;28;20052;-75
2022/08/18 04:32:34;;;;;;;17.27;5.68;;;18.70;99.90;;;;;;5014166;28;20712;-75
2022/08/18 04:35:00;;;;;;;14.35;5.10;;;18.80;99.90;;;;;;5016296;28;20034;-76
2022/08/18 04:37:25;;;;;;;14.98;5.25;;;18.70;99.90;;;;;;4996555;28;20045;-75
2022/08/18 04:39:51;;;;;;;17.38;5.78;;;18.40;99.90;;;;;;4995826;28;20051;-76
2022/08/18 04:42:17;;;;;;;14.73;5.50;;;18.80;99.90;;;;;;5014148;28;20458;-75
2022/08/18 04:44:43;;;;;;;14.25;5.60;;;18.70;99.90;;;;;;5017134;28;20033;-75
2022/08/18 04:47:12;;;;;;;14.68;5.25;;;18.80;99.90;;;;;;5033220;28;20120;-75
2022/08/18 04:49:37;;;;;;;15.93;5.95;;;18.80;99.90;;;;;;5030956;28;20038;-75
2022/08/18 04:54:50;;;;;;;16.38;5.80;;;18.80;99.90;;;;;;5008920;28;20057;-75
2022/08/18 04:57:18;;;;;;;24.35;6.50;;;18.80;99.90;;;;;;4997627;28;20156;-75
2022/08/18 04:59:47;;;;;;;17.92;5.43;;;19.60;99.90;;;;;;4997777;28;20034;-75
2022/08/18 05:02:14;;;;;;;14.50;5.85;;;18.70;99.90;;;;;;5025742;28;20042;-75
2022/08/18 05:04:45;;;;;;;16.00;5.57;;;18.70;99.90;;;;;;5011015;28;20045;-75
2022/08/18 05:07:14;;;;;;;12.82;5.63;;;18.70;99.90;;;;;;5009809;28;20045;-74
2022/08/18 05:09:43;;;;;;;13.52;5.13;;;18.80;99.90;;;;;;5021011;28;20038;-75
2022/08/18 05:12:12;;;;;;;13.85;5.55;;;18.80;99.90;;;;;;5010250;28;20037;-75
2022/08/18 05:14:43;;;;;;;16.30;5.72;;;18.80;99.90;;;;;;5014962;28;20084;-75
2022/08/18 05:17:09;;;;;;;17.20;5.30;;;18.80;99.90;;;;;;5008494;28;20049;-74
2022/08/18 05:19:36;;;;;;;12.98;5.40;;;18.80;99.90;;;;;;5032808;28;20535;-75
2022/08/18 05:22:03;;;;;;;11.55;5.20;;;18.80;99.90;;;;;;5012730;28;20511;-75
2022/08/18 05:24:30;;;;;;;14.73;5.40;;;18.80;99.90;;;;;;5010091;28;20048;-76
2022/08/18 05:26:59;;;;;;;16.23;5.50;;;18.80;99.90;;;;;;5021402;28;20148;-76
2022/08/18 05:29:24;;;;;;;13.85;5.00;;;18.80;99.90;;;;;;5014952;28;20049;-76
2022/08/18 05:31:52;;;;;;;14.30;5.22;;;18.80;99.90;;;;;;4999073;28;20048;-76
2022/08/18 05:34:20;;;;;;;15.85;5.45;;;18.80;99.90;;;;;;5024456;28;20480;-76
2022/08/18 05:36:50;;;;;;;14.63;5.40;;;18.80;99.90;;;;;;5010841;28;20044;-75
2022/08/18 05:39:28;;;;;;;15.00;5.20;;;18.90;99.90;;;;;;5015770;28;20095;-76
2022/08/18 05:42:05;;;;;;;13.38;4.90;;;18.90;99.90;;;;;;5001711;28;20054;-75
2022/08/18 05:44:35;;;;;;;16.25;5.80;;;18.90;99.90;;;;;;5007814;28;20575;-75
2022/08/18 05:47:05;;;;;;;15.00;6.00;;;19.00;99.90;;;;;;5013618;28;20526;-76
2022/08/18 05:49:34;;;;;;;14.23;5.40;;;19.00;99.90;;;;;;5012400;28;20100;-75
2022/08/18 05:52:04;;;;;;;16.13;5.90;;;19.00;99.90;;;;;;5018214;28;20041;-75
2022/08/18 05:57:31;;;;;;;16.15;5.10;;;19.00;99.90;;;;;;5035535;28;20527;-75
2022/08/18 05:59:57;;;;;;;12.98;5.45;;;19.10;99.90;;;;;;5041760;28;20506;-75
2022/08/18 06:02:44;;;;;;;12.00;5.18;;;19.10;99.90;;;;;;5008864;28;20049;-75
2022/08/18 06:05:18;;;;;;;12.88;4.88;;;19.10;99.90;;;;;;5013137;28;20676;-75
2022/08/18 06:07:53;;;;;;;15.00;5.55;;;19.10;99.90;;;;;;5044327;28;20072;-74
2022/08/18 06:10:19;;;;;;;13.75;5.30;;;19.20;99.90;;;;;;5005704;28;20054;-74
2022/08/18 06:12:53;;;;;;;14.27;5.05;;;19.90;99.90;;;;;;4990321;28;20065;-75
2022/08/18 06:15:52;;;;;;;14.75;5.40;;;19.20;99.90;;;;;;5009956;28;20046;-74
2022/08/18 06:18:40;;;;;;;13.02;5.30;;;19.30;99.90;;;;;;5009637;28;20166;-75
2022/08/18 06:21:13;;;;;;;14.15;5.05;;;19.30;99.90;;;;;;4999066;28;20037;-75
2022/08/18 06:24:01;;;;;;;13.25;4.90;;;19.40;99.90;;;;;;5019956;28;20042;-75
2022/08/18 06:26:57;;;;;;;15.35;4.45;;;19.40;99.90;;;;;;5022984;28;20037;-75
2022/08/18 06:29:58;;;;;;;14.13;5.18;;;19.40;99.90;;;;;;5038418;28;20049;-75
2022/08/18 06:32:51;;;;;;;11.65;4.70;;;19.40;99.90;;;;;;5006897;28;20037;-75
2022/08/18 06:35:39;;;;;;;14.85;4.70;;;19.30;99.90;;;;;;4995714;28;20458;-74
2022/08/18 06:41:14;;;;;;;12.05;4.88;;;19.40;99.90;;;;;;5012477;28;20054;-74
2022/08/18 06:43:52;;;;;;;12.70;4.60;;;19.40;99.90;;;;;;5004139;28;20187;-75
2022/08/18 06:46:22;;;;;;;13.65;4.40;;;19.50;99.90;;;;;;5003333;28;20447;-74
2022/08/18 06:48:53;;;;;;;13.52;4.88;;;19.50;99.90;;;;;;5014929;28;20041;-75
2022/08/18 06:51:21;;;;;;;11.88;4.22;;;19.50;99.90;;;;;;5003873;28;20042;-75
2022/08/18 06:54:01;;;;;;;13.13;4.72;;;19.50;99.90;;;;;;5004771;28;20046;-75
2022/08/18 06:56:57;;;;;;;11.43;4.60;;;19.40;99.90;;;;;;5014071;28;20061;-75
2022/08/18 06:59:31;;;;;;;14.00;4.05;;;19.40;99.90;;;;;;5001615;28;20045;-74
2022/08/18 07:02:00;;;;;;;14.68;4.53;;;19.40;99.90;;;;;;5013113;28;20026;-74
2022/08/18 07:04:43;;;;;;;17.05;3.97;;;19.30;99.90;;;;;;4992886;28;20495;-75
2022/08/18 07:07:16;;;;;;;13.65;4.40;;;19.20;99.90;;;;;;5007253;28;20065;-76
2022/08/18 07:09:42;;;;;;;18.48;3.80;;;19.20;99.90;;;;;;5010097;28;20049;-76
2022/08/18 07:12:09;;;;;;;14.82;3.92;;;19.20;99.90;;;;;;5005566;28;20047;-76
2022/08/18 07:14:48;;;;;;;13.63;3.70;;;19.20;99.90;;;;;;5012392;28;20076;-77
2022/08/18 07:17:21;;;;;;;12.60;4.13;;;19.20;99.90;;;;;;5004400;28;20049;-77
2022/08/18 07:20:24;;;;;;;15.33;4.70;;;19.30;99.90;;;;;;5008129;28;20496;-76
2022/08/18 07:23:02;;;;;;;13.43;4.10;;;19.30;99.90;;;;;;5005583;28;20419;-77
2022/08/18 07:25:38;;;;;;;12.18;3.53;;;19.30;99.90;;;;;;5012013;28;20079;-77
2022/08/18 07:28:06;;;;;;;11.88;3.35;;;19.30;99.90;;;;;;5015726;28;20065;-77
2022/08/18 07:30:37;;;;;;;13.95;3.50;;;19.30;99.90;;;;;;4995727;28;20128;-76
2022/08/18 07:33:24;;;;;;;11.05;3.60;;;19.30;99.90;;;;;;5010892;28;20033;-76
2022/08/18 07:35:57;;;;;;;12.52;3.70;;;19.40;99.90;;;;;;5015974;28;20084;-77
2022/08/18 07:38:45;;;;;;;15.75;3.55;;;19.30;99.90;;;;;;5012005;28;20049;-76
2022/08/18 07:41:19;;;;;;;14.20;3.80;;;19.40;99.90;;;;;;5010637;28;20046;-76
2022/08/18 07:43:50;;;;;;;11.90;2.95;;;19.40;99.90;;;;;;4989747;28;20054;-77
2022/08/18 07:46:45;;;;;;;10.82;3.00;;;19.50;99.90;;;;;;5019616;28;20470;-76
2022/08/18 07:49:18;;;;;;;13.73;3.25;;;19.40;99.90;;;;;;4996981;28;20053;-77
2022/08/18 07:51:49;;;;;;;15.00;3.78;;;19.40;99.90;;;;;;5014699;28;20096;-77
2022/08/18 07:54:54;;;;;;;10.68;3.20;;;19.50;99.90;;;;;;5005260;28;20161;-76
2022/08/18 07:57:33;;;;;;;11.73;2.80;;;19.50;99.90;;;;;;5009340;28;20042;-76
2022/08/18 08:00:20;;;;;;;11.60;2.75;;;19.50;99.90;;;;;;5007670;28;20443;-76
2022/08/18 08:02:57;;;;;;;11.55;2.70;;;19.50;99.90;;;;;;5006830;28;20037;-76
2022/08/18 08:05:57;;;;;;;12.57;3.65;;;19.60;99.90;;;;;;5004144;28;20500;-76
2022/08/18 08:08:48;;;;;;;9.55;2.72;;;19.60;99.90;;;;;;5008322;28;20042;-76
2022/08/18 08:11:45;;;;;;;12.95;3.33;;;20.70;99.90;;;;;;4996224;28;20045;-75
2022/08/18 08:14:42;;;;;;;10.05;2.63;;;19.60;99.90;;;;;;5025150;28;20038;-75
2022/08/18 08:17:31;;;;;;;12.40;2.40;;;19.60;99.90;;;;;;5033843;28;20042;-76
2022/08/18 08:20:07;;;;;;;10.63;2.60;;;19.60;99.90;;;;;;5021464;28;20514;-74
2022/08/18 08:23:02;;;;;;;10.95;2.83;;;19.60;99.90;;;;;;5009936;28;20073;-74
2022/08/18 08:25:45;;;;;;;12.88;2.78;;;19.60;99.90;;;;;;5010019;28;20061;-76
2022/08/18 08:28:55;;;;;;;10.60;2.28;;;19.70;99.90;;;;;;5009243;28;20045;-74
2022/08/18 08:31:41;;;;;;;10.45;2.72;;;20.10;99.90;;;;;;5033542;28;20053;-75
2022/08/18 08:34:15;;;;;;;7.88;2.38;;;20.10;99.90;;;;;;5050882;28;20060;-75
2022/08/18 08:36:44;;;;;;;8.10;2.30;;;20.10;99.90;;;;;;5014453;28;20044;-74
2022/08/18 08:39:32;;;;;;;9.18;2.45;;;20.10;99.90;;;;;;5012446;28;20149;-75
2022/08/18 08:42:15;;;;;;;8.90;2.45;;;20.10;99.90;;;;;;5014519;28;20577;-74
2022/08/18 08:44:48;;;;;;;;;;;20.10;99.90;;;;;;5016528;28;20042;-74
2022/08/18 08:47:46;;;;;;;10.00;2.20;;;20.10;99.90;;;;;;5016945;28;19917;-75
2022/08/18 08:50:20;;;;;;;9.50;2.50;;;20.10;99.90;;;;;;4994715;28;20137;-75
2022/08/18 08:53:01;;;;;;;15.45;2.70;;;20.10;99.90;;;;;;4998589;28;20049;-74
2022/08/18 08:55:35;;;;;;;9.48;2.45;;;20.10;99.90;;;;;;5013571;28;20073;-74
2022/08/18 08:58:25;;;;;;;7.30;2.30;;;20.10;99.90;;;;;;5010318;28;20546;-75
2022/08/18 09:00:52;;;;;;;8.50;2.20;;;20.10;99.90;;;;;;5017039;28;20112;-74
2022/08/18 09:03:24;;;;;;;11.13;2.30;;;20.10;99.90;;;;;;5019678;28;20073;-74
2022/08/18 09:06:07;;;;;;;8.85;2.58;;;20.10;99.90;;;;;;5018681;28;20034;-75
2022/08/18 09:08:57;;;;;;;9.32;2.28;;;20.20;99.90;;;;;;5014380;28;20034;-75
2022/08/18 09:11:38;;;;;;;9.55;2.35;;;20.30;99.90;;;;;;5013827;28;20042;-74
2022/08/18 09:14:29;;;;;;;8.65;2.55;;;20.30;99.90;;;;;;5017698;28;20034;-74
2022/08/18 09:17:19;;;;;;;11.23;2.85;;;20.40;99.90;;;;;;5001267;28;20079;-75
2022/08/18 09:20:07;;;;;;;9.27;2.30;;;20.50;99.90;;;;;;5008591;28;20056;-74
2022/08/18 09:22:48;;;;;;;9.38;2.40;;;20.40;99.90;;;;;;4997683;28;20415;-74
2022/08/18 09:25:40;;;;;;;10.18;2.60;;;20.40;99.90;;;;;;5003283;28;20116;-74
2022/08/18 09:28:23;;;;;;;12.82;3.25;;;20.40;99.90;;;;;;5014300;28;20057;-74
2022/08/18 09:30:49;;;;;;;;;;;20.40;99.90;;;;;;5018323;28;20049;-75
2022/08/18 09:33:21;;;;;;;8.95;2.60;;;20.60;99.90;;;;;;5011055;28;19921;-75
2022/08/18 09:36:11;;;;;;;9.05;2.42;;;20.70;99.90;;;;;;5024200;28;20044;-75
2022/08/18 09:41:59;;;;;;;8.13;2.50;;;20.70;99.90;;;;;;5007571;28;20128;-75
2022/08/18 09:44:46;;;;;;;9.38;2.40;;;20.70;99.90;;;;;;5014530;28;20046;-74
2022/08/18 09:47:23;;;;;;;10.55;2.50;;;20.70;99.90;;;;;;5014207;28;20034;-74
2022/08/18 09:50:16;;;;;;;10.05;2.50;;;20.70;99.90;;;;;;4993038;28;20049;-75
2022/08/18 09:52:41;;;;;;;;;;;20.80;99.90;;;;;;5018030;28;20045;-74
2022/08/18 09:55:30;;;;;;;7.78;2.20;;;20.80;99.90;;;;;;5015696;28;19933;-74
2022/08/18 09:58:13;;;;;;;7.20;2.08;;;20.80;99.90;;;;;;5005435;28;20095;-74
2022/08/18 10:00:40;;;;;;;10.48;2.63;;;20.80;99.90;;;;;;5010850;28;20042;-75
2022/08/18 10:03:18;;;;;;;13.95;2.63;;;20.80;99.90;;;;;;5015295;28;20078;-75
2022/08/18 10:06:05;;;;;;;8.23;2.10;;;21.00;99.90;;;;;;5012056;28;20045;-75
2022/08/18 10:08:56;;;;;;;8.40;2.20;;;21.10;99.90;;;;;;5011080;28;20044;-75
2022/08/18 10:11:38;;;;;;;8.68;2.55;;;21.10;99.90;;;;;;5004832;28;20557;-75
2022/08/18 10:14:18;;;;;;;8.82;2.30;;;21.50;99.90;;;;;;5011354;28;20128;-76
2022/08/18 10:16:56;;;;;;;8.30;2.20;;;21.60;99.90;;;;;;5005846;28;20497;-75
2022/08/18 10:19:33;;;;;;;8.27;2.40;;;21.60;99.90;;;;;;5011712;28;20038;-75
2022/08/18 10:22:00;;;;;;;8.95;2.38;;;21.50;99.90;;;;;;5009488;28;20049;-75
2022/08/18 10:24:32;;;;;;;8.68;2.25;;;21.30;99.90;;;;;;5008808;28;20042;-74
2022/08/18 10:27:01;;;;;;;7.53;2.22;;;21.20;99.90;;;;;;5025487;28;20045;-75
2022/08/18 10:29:27;;;;;;;8.82;2.30;;;21.10;99.90;;;;;;5010395;28;20049;-76
2022/08/18 10:31:55;;;;;;;8.40;2.22;;;21.10;99.90;;;;;;5010564;28;20042;-74
2022/08/18 10:34:49;;;;;;;9.60;2.55;;;21.10;99.90;;;;;;5010126;28;20488;-74
2022/08/18 10:37:44;;;;;;;10.48;2.92;;;21.10;99.90;;;;;;5008219;28;20048;-75
2022/08/18 10:40:12;;;;;;;8.05;2.13;;;21.00;99.90;;;;;;5006658;28;20108;-75
2022/08/18 10:43:08;;;;;;;8.93;2.20;;;21.30;99.90;;;;;;5010342;28;20053;-75
2022/08/18 10:45:50;;;;;;;6.65;2.20;;;20.80;99.90;;;;;;5001997;28;20051;-74
2022/08/18 10:48:33;;;;;;;6.85;2.10;;;20.80;99.90;;;;;;5009002;28;20096;-75
2022/08/18 10:51:14;;;;;;;9.32;2.50;;;20.70;99.90;;;;;;5009120;28;20547;-74
2022/08/18 10:53:57;;;;;;;12.10;2.95;;;20.80;99.90;;;;;;5008896;28;20548;-75
2022/08/18 10:56:53;;;;;;;11.02;2.30;;;20.80;99.90;;;;;;5008732;28;20041;-75
2022/08/18 10:59:46;;;;;;;8.80;2.40;;;20.80;99.90;;;;;;5010205;28;20081;-74
2022/08/18 11:02:34;;;;;;;7.38;1.85;;;20.80;99.90;;;;;;5001375;28;20046;-76
2022/08/18 11:05:05;;;;;;;8.65;2.40;;;20.80;99.90;;;;;;5003419;28;20500;-74
2022/08/18 11:07:31;;;;;;;8.15;2.60;;;20.90;99.90;;;;;;5009584;28;20423;-75
2022/08/18 11:10:00;;;;;;;7.47;2.33;;;20.90;99.90;;;;;;5008634;28;20042;-76
2022/08/18 11:13:04;;;;;;;10.25;2.55;;;20.90;99.90;;;;;;5008531;28;20045;-74
2022/08/18 11:16:00;;;;;;;8.63;2.35;;;20.90;99.90;;;;;;4992615;28;20077;-75
2022/08/18 11:18:41;;;;;;;8.32;2.28;;;20.90;99.90;;;;;;5008840;28;20444;-74
2022/08/18 11:21:29;;;;;;;7.93;2.45;;;21.00;99.90;;;;;;5008525;28;20061;-76
2022/08/18 11:24:23;;;;;;;10.13;2.55;;;21.00;99.90;;;;;;5008671;28;20124;-75
2022/08/18 11:26:53;;;;;;;9.77;2.53;;;21.00;99.90;;;;;;5007953;28;20050;-75
2022/08/18 11:29:25;;;;;;;8.73;2.50;;;21.00;99.90;;;;;;5008308;28;20042;-76
2022/08/18 11:31:56;;;;;;;8.60;2.35;;;21.10;99.90;;;;;;5008743;28;20048;-74
2022/08/18 11:34:50;;;;;;;9.52;2.17;;;21.10;99.90;;;;;;5009706;28;20403;-75
2022/08/18 11:37:40;;;;;;;10.20;2.75;;;21.20;99.90;;;;;;4991788;28;20042;-75
2022/08/18 11:40:19;;;;;;;7.45;2.40;;;21.30;99.90;;;;;;4990696;28;20104;-76
2022/08/18 11:43:15;;;;;;;8.82;2.50;;;21.30;99.90;;;;;;5009362;28;20068;-75
2022/08/18 11:46:09;;;;;;;9.98;2.67;;;21.50;99.90;;;;;;5005550;28;20041;-75
2022/08/18 11:48:37;;;;;;;8.27;2.33;;;21.70;99.90;;;;;;5010016;28;20042;-75
2022/08/18 11:51:09;;;;;;;7.78;1.90;;;22.20;99.90;;;;;;5012271;28;20174;-75
2022/08/18 11:53:50;;;;;;;8.90;2.30;;;22.30;99.90;;;;;;5012127;28;20060;-74
2022/08/18 11:56:19;;;;;;;7.13;2.38;;;22.30;99.90;;;;;;5013038;28;20045;-75
2022/08/18 11:58:56;;;;;;;7.25;2.22;;;22.30;99.90;;;;;;4995907;28;20045;-75
2022/08/18 12:01:37;;;;;;;6.07;2.10;;;22.30;99.90;;;;;;5012904;28;20038;-75
2022/08/18 12:04:12;;;;;;;9.15;2.38;;;22.20;99.90;;;;;;5012009;28;20496;-75
2022/08/18 12:06:54;;;;;;;13.02;2.55;;;22.30;99.90;;;;;;5013134;28;20360;-75
2022/08/18 12:09:22;;;;;;;6.78;2.08;;;22.20;99.90;;;;;;4999840;28;20061;-75
2022/08/18 12:12:00;;;;;;;6.53;2.10;;;22.20;99.90;;;;;;5011854;28;20060;-75
2022/08/18 12:14:30;;;;;;;7.10;2.58;;;22.20;99.90;;;;;;5011925;28;20059;-75
2022/08/18 12:16:56;;;;;;;6.35;2.13;;;22.10;99.90;;;;;;5013039;28;20546;-75
2022/08/18 12:19:23;;;;;;;7.70;2.10;;;22.10;99.90;;;;;;5011712;28;20073;-76
2022/08/18 12:21:57;;;;;;;5.05;1.80;;;22.00;99.90;;;;;;4994911;28;20049;-76
2022/08/18 12:24:24;;;;;;;6.88;2.00;;;22.10;99.90;;;;;;5011802;28;20049;-75
2022/08/18 12:26:50;;;;;;;9.95;2.33;;;22.40;99.90;;;;;;4995086;28;20056;-75
2022/08/18 12:29:17;;;;;;;6.32;1.92;;;22.70;99.90;;;;;;5011256;28;20034;-74
2022/08/18 12:31:54;;;;;;;6.72;2.40;;;23.00;99.90;;;;;;5011419;28;20046;-76
2022/08/18 12:34:28;;;;;;;5.45;2.00;;;23.00;99.90;;;;;;5011568;28;20038;-75
2022/08/18 12:36:56;;;;;;;5.72;2.10;;;22.90;99.90;;;;;;5011283;28;20088;-75
2022/08/18 12:39:22;;;;;;;9.55;2.22;;;22.80;99.90;;;;;;5010940;28;20137;-75
2022/08/18 12:41:48;;;;;;;5.40;2.10;;;22.70;99.90;;;;;;5012378;28;20045;-75
2022/08/18 12:44:14;;;;;;;7.22;1.90;;;22.60;99.90;;;;;;5012464;28;20116;-76
2022/08/18 12:46:41;;;;;;;8.20;2.20;;;22.40;99.90;;;;;;4992851;28;20053;-75
2022/08/18 12:49:14;;;;;;;6.68;2.05;;;22.30;99.90;;;;;;5012593;28;20121;-77
2022/08/18 12:51:39;;;;;;;5.13;1.90;;;22.10;99.90;;;;;;5012075;28;20411;-75
2022/08/18 12:54:05;;;;;;;6.32;2.10;;;22.10;99.90;;;;;;5010933;28;20038;-75
2022/08/18 12:56:31;;;;;;;7.78;2.10;;;22.10;99.90;;;;;;5012304;28;20045;-74
2022/08/18 12:59:13;;;;;;;8.10;2.05;;;22.20;99.90;;;;;;5010892;28;20073;-74
2022/08/18 13:01:39;;;;;;;8.32;2.30;;;22.20;99.90;;;;;;5009700;28;20498;-75
2022/08/18 13:04:05;;;;;;;6.03;2.33;;;22.30;99.90;;;;;;5010647;28;20038;-75
2022/08/18 13:06:39;;;;;;;6.78;2.10;;;22.50;99.90;;;;;;5010558;28;20076;-76
2022/08/18 13:09:06;;;;;;;6.60;2.17;;;23.20;99.90;;;;;;5017164;28;20034;-75
2022/08/18 13:11:32;;;;;;;10.80;2.10;;;22.70;99.90;;;;;;5011868;28;20077;-76
2022/08/18 13:14:04;;;;;;;6.22;2.00;;;23.00;99.90;;;;;;5010438;28;20041;-75
2022/08/18 13:16:36;;;;;;;5.35;1.77;;;23.20;99.90;;;;;;5010375;28;20056;-75
2022/08/18 13:19:03;;;;;;;7.55;2.13;;;23.40;99.90;;;;;;5011810;28;20049;-76
2022/08/18 13:21:38;;;;;;;7.18;2.10;;;23.40;99.90;;;;;;5010468;28;20104;-75
2022/08/18 13:24:04;;;;;;;5.38;1.90;;;23.50;99.90;;;;;;5010227;28;20041;-76
2022/08/18 13:26:34;;;;;;;6.97;2.10;;;23.60;99.90;;;;;;4994185;28;20049;-76
2022/08/18 13:29:01;;;;;;;6.35;2.13;;;23.70;99.90;;;;;;5011631;28;20037;-75
2022/08/18 13:31:27;;;;;;;7.13;2.20;;;23.60;99.90;;;;;;5009980;28;20069;-76
2022/08/18 13:33:57;;;;;;;5.50;2.08;;;23.50;99.90;;;;;;5011524;28;20073;-76
2022/08/18 13:36:24;;;;;;;8.75;2.60;;;23.50;99.90;;;;;;5010191;28;20480;-76